Time;durP1;ratioP1;P1;durP2;ratioP2;P2;SDS_P1;SDS_P2;PMS_P1;PMS_P2;Temp;Humidity;BMP_temperature;BMP_pressure;BME280_temperature;BME280_humidity;BME280_pressure;Samples;Min_cycle;Max_cycle;Signal;HPM_P1;HPM_P2
2023/11/07 00:01:36;;;;;;;1.60;1.53;;;;;;;13.65;52.85;98383.88;6917026;28;20211;-89
2023/11/07 00:04:59;;;;;;;2.07;1.67;;;;;;;13.03;53.23;98287.84;6917978;28;20721;-88
2023/11/07 00:08:20;;;;;;;1.77;1.60;;;;;;;13.59;53.19;98368.56;6943347;28;20223;-90
2023/11/07 00:11:42;;;;;;;2.17;1.60;;;;;;;13.58;53.72;98383.16;6944037;28;20289;-89
2023/11/07 00:15:04;;;;;;;1.40;1.40;;;;;;;13.52;53.58;98381.38;6942869;28;20329;-90
2023/11/07 00:18:26;;;;;;;1.90;1.80;;;;;;;13.60;53.66;98408.97;6944068;28;20310;-90
2023/11/07 00:21:49;;;;;;;1.70;1.60;;;;;;;13.24;53.47;98346.84;6943299;28;20237;-89
2023/11/07 00:25:10;;;;;;;1.97;1.70;;;;;;;12.71;54.25;98304.56;6940540;28;20238;-89
2023/11/07 00:28:32;;;;;;;2.50;1.83;;;;;;;12.85;54.86;98368.22;6943172;28;20275;-90
2023/11/07 00:31:53;;;;;;;2.47;1.93;;;;;;;13.52;53.98;98432.84;6943019;28;20337;-88
2023/11/07 00:35:15;;;;;;;4.30;1.73;;;;;;;13.16;53.48;98351.78;6942574;28;20287;-91
2023/11/07 00:38:38;;;;;;;5.03;1.70;;;;;;;13.60;53.49;98403.53;6941142;28;20712;-91
2023/11/07 00:41:59;;;;;;;1.70;1.60;;;;;;;13.76;52.47;98399.31;6942353;28;20230;-91
2023/11/07 00:45:21;;;;;;;1.73;1.63;;;;;;;13.22;53.65;98405.00;6942120;28;20294;-89
2023/11/07 00:48:43;;;;;;;2.10;1.77;;;;;;;13.69;52.27;98409.44;6942644;28;20246;-91
2023/11/07 00:52:05;;;;;;;1.90;1.80;;;;;;;13.64;52.33;98409.31;6942311;28;20210;-89
2023/11/07 00:55:28;;;;;;;1.70;1.60;;;;;;;12.81;52.58;98291.31;6940039;28;20667;-91
2023/11/07 00:58:49;;;;;;;2.77;1.73;;;;;;;13.60;52.47;98419.78;6942368;28;20262;-91
2023/11/07 01:02:11;;;;;;;2.63;1.60;;;;;;;13.39;52.99;98422.22;6941971;28;20356;-91
2023/11/07 01:05:33;;;;;;;1.80;1.70;;;;;;;13.37;52.72;98410.78;6942095;28;20657;-91
2023/11/07 01:08:54;;;;;;;1.70;1.60;;;;;;;13.10;52.94;98406.84;6941461;28;20246;-91
2023/11/07 01:12:17;;;;;;;4.33;1.70;;;;;;;12.73;52.64;98314.09;6926835;28;20682;-91
2023/11/07 01:15:39;;;;;;;2.70;1.90;;;;;;;12.99;52.35;98350.78;6937669;28;20317;-91
2023/11/07 01:19:01;;;;;;;1.73;1.63;;;;;;;13.06;52.97;98401.06;6941920;28;20257;-91
2023/11/07 01:22:22;;;;;;;4.10;1.77;;;;;;;12.66;53.82;98390.97;6942107;28;20726;-91
2023/11/07 01:25:44;;;;;;;4.40;1.83;;;;;;;12.35;54.22;98372.25;6941801;28;20215;-91
2023/11/07 01:29:07;;;;;;;1.80;1.70;;;;;;;12.36;54.14;98339.59;6940208;28;20254;-91
2023/11/07 01:32:29;;;;;;;2.57;1.70;;;;;;;12.56;54.09;98396.94;6941726;28;20195;-91
2023/11/07 01:35:50;;;;;;;1.83;1.73;;;;;;;12.53;54.14;98374.94;6941021;28;20314;-90
2023/11/07 01:39:13;;;;;;;2.07;1.90;;;;;;;12.45;53.95;98357.13;6942381;28;20226;-91
2023/11/07 01:42:42;;;;;;;3.00;1.90;;;;;;;12.89;53.64;98415.44;6942004;28;20343;-91
2023/11/07 01:46:05;;;;;;;2.00;1.90;;;;;;;12.65;53.86;98417.22;6939855;28;20328;-91
2023/11/07 01:49:27;;;;;;;2.77;1.83;;;;;;;11.90;54.55;98297.94;6941861;28;20633;-90
2023/11/07 01:52:49;;;;;;;2.00;1.87;;;;;;;12.71;53.83;98410.88;6941994;28;20285;-91
2023/11/07 01:56:10;;;;;;;2.97;1.90;;;;;;;12.01;54.02;98284.53;6941174;28;20241;-91
2023/11/07 01:59:32;;;;;;;4.73;1.80;;;;;;;12.04;54.24;98302.97;6942078;28;20615;-91
2023/11/07 02:02:57;;;;;;;3.57;1.80;;;;;;;11.81;54.54;98265.00;6939814;28;20214;-91
2023/11/07 02:06:19;;;;;;;4.90;1.80;;;;;;;11.64;56.51;98387.34;6941721;28;20199;-91
2023/11/07 02:09:41;;;;;;;3.70;2.10;;;;;;;11.90;56.39;98370.88;6942108;28;20661;-91
2023/11/07 02:13:03;;;;;;;1.67;1.57;;;;;;;11.72;55.52;98301.50;6941876;28;20199;-91
2023/11/07 02:16:24;;;;;;;2.27;1.90;;;;;;;11.25;56.87;98336.38;6939655;28;20678;-91
2023/11/07 02:19:47;;;;;;;1.90;1.80;;;;;;;11.69;56.18;98352.41;6942874;28;20314;-91
2023/11/07 02:23:11;;;;;;;2.10;1.90;;;;;;;11.32;59.10;98423.50;6946436;28;20264;-90
2023/11/07 02:26:34;;;;;;;2.20;2.00;;;;;;;11.78;58.35;98429.38;6947037;28;20199;-91
2023/11/07 02:29:56;;;;;;;2.37;1.90;;;;;;;11.47;58.74;98427.56;6946748;28;20257;-90
2023/11/07 02:33:19;;;;;;;2.97;2.23;;;;;;;11.06;58.92;98361.66;6944211;28;20600;-91
2023/11/07 02:36:41;;;;;;;4.60;2.10;;;;;;;11.24;57.91;98351.75;6946232;28;20289;-91
2023/11/07 02:40:04;;;;;;;1.70;1.60;;;;;;;11.09;58.63;98332.38;6946522;28;20725;-91
2023/11/07 02:43:27;;;;;;;1.93;1.73;;;;;;;11.21;57.91;98325.22;6946034;28;20670;-91
2023/11/07 02:46:48;;;;;;;4.43;3.33;;;;;;;11.77;56.84;98349.41;6946087;28;20203;-91
2023/11/07 02:50:13;;;;;;;3.03;2.20;;;;;;;11.20;57.01;98285.78;6944125;28;20285;-91
2023/11/07 02:53:37;;;;;;;2.00;1.80;;;;;;;11.77;56.83;98373.72;6944759;28;20234;-91
2023/11/07 02:57:04;;;;;;;2.57;1.90;;;;;;;11.25;56.18;98295.91;6945816;28;20272;-91
2023/11/07 03:00:38;;;;;;;2.77;1.80;;;;;;;11.27;57.35;98347.81;6945679;28;20701;-91
2023/11/07 03:04:03;;;;;;;2.90;1.87;;;;;;;11.54;56.40;98293.34;6945182;28;20190;-91
2023/11/07 03:07:32;;;;;;;2.83;1.97;;;;;;;11.80;55.73;98295.78;6943875;28;20211;-91
2023/11/07 03:10:54;;;;;;;3.67;2.00;;;;;;;12.10;55.38;98339.91;6970866;28;20648;-91
2023/11/07 03:14:21;;;;;;;3.70;1.60;;;;;;;12.24;55.44;98356.78;6920881;28;20243;-91
2023/11/07 03:17:45;;;;;;;1.83;1.73;;;;;;;12.03;55.73;98333.75;6918379;28;20207;-91
2023/11/07 03:21:08;;;;;;;4.97;1.63;;;;;;;11.88;55.70;98283.84;6918358;28;20242;-91
2023/11/07 03:24:32;;;;;;;2.37;2.03;;;;;;;11.71;56.90;98334.13;6938413;28;20219;-91
2023/11/07 03:27:54;;;;;;;2.37;1.83;;;;;;;12.14;56.28;98364.59;6917357;28;20227;-91
2023/11/07 03:31:16;;;;;;;2.77;1.50;;;;;;;11.76;56.40;98321.56;6917197;28;20220;-91
2023/11/07 03:34:45;;;;;;;1.93;1.73;;;;;;;11.81;55.77;98302.81;6916903;28;20254;-91
2023/11/07 03:38:09;;;;;;;1.63;1.40;;;;;;;12.06;56.16;98346.81;6925000;28;20234;-91
2023/11/07 03:41:30;;;;;;;4.53;1.70;;;;;;;12.05;55.42;98293.81;6944230;28;20286;-91
2023/11/07 03:44:59;;;;;;;1.80;1.70;;;;;;;12.62;54.78;98384.41;6944166;28;20222;-91
2023/11/07 03:48:21;;;;;;;2.33;2.10;;;;;;;12.45;54.57;98369.84;6944403;28;20231;-91
2023/11/07 03:51:45;;;;;;;3.30;1.80;;;;;;;11.87;54.83;98282.22;6944585;28;20680;-91
2023/11/07 03:55:10;;;;;;;1.90;1.70;;;;;;;12.34;54.98;98355.19;6942047;28;20275;-91
2023/11/07 03:58:34;;;;;;;2.63;2.43;;;;;;;12.77;54.03;98403.72;6952046;28;20225;-91
2023/11/07 04:01:58;;;;;;;2.93;1.80;;;;;;;11.93;54.52;98292.91;6965969;28;20203;-91
2023/11/07 04:05:23;;;;;;;2.30;1.50;;;;;;;12.17;54.59;98356.03;6943454;28;20199;-91
2023/11/07 04:08:46;;;;;;;2.27;1.90;;;;;;;11.86;54.00;98299.47;6943595;28;20759;-91
2023/11/07 04:12:12;;;;;;;2.47;1.60;;;;;;;12.17;55.12;98397.38;6943463;28;20212;-91
2023/11/07 04:15:39;;;;;;;1.53;1.43;;;;;;;12.22;55.11;98388.63;6943278;28;20584;-91
2023/11/07 04:19:01;;;;;;;6.30;1.60;;;;;;;12.14;54.54;98338.41;6943324;28;20219;-91
2023/11/07 04:22:31;;;;;;;2.20;1.60;;;;;;;11.86;54.32;98305.69;6941830;28;20334;-89
2023/11/07 04:26:07;;;;;;;1.80;1.70;;;;;;;12.31;53.35;98339.44;6943296;28;20203;-91
2023/11/07 04:29:33;;;;;;;2.50;2.30;;;;;;;12.70;53.97;98411.13;6942944;28;20655;-91
2023/11/07 04:33:01;;;;;;;2.33;1.70;;;;;;;12.60;53.23;98386.47;6942916;28;20250;-91
2023/11/07 04:36:51;;;;;;;1.70;1.60;;;;;;;11.81;54.28;98316.31;6941668;28;20230;-91
2023/11/07 04:40:21;;;;;;;2.10;1.90;;;;;;;12.39;54.00;98384.28;6942177;28;20227;-91
2023/11/07 04:44:03;;;;;;;2.10;1.90;;;;;;;11.82;54.29;98304.50;6942827;28;20207;-92
2023/11/07 04:47:25;;;;;;;1.93;1.83;;;;;;;12.35;54.40;98389.31;6943846;28;20211;-91
2023/11/07 04:50:57;;;;;;;4.57;2.00;;;;;;;11.69;55.12;98311.91;6943099;28;20233;-93
2023/11/07 04:58:46;;;;;;;;;;;;;;;;;;;;;
2023/11/07 05:02:41;;;;;;;3.03;1.80;;;;;;;11.80;53.81;98297.66;6883468;28;20254;-92
2023/11/07 05:06:08;;;;;;;2.07;1.97;;;;;;;12.38;53.54;98401.50;6862124;28;20664;-91
2023/11/07 05:13:33;;;;;;;2.63;1.80;;;;;;;12.23;53.97;98398.38;6872271;28;20216;-91
2023/11/07 05:16:54;;;;;;;1.73;1.60;;;;;;;12.49;53.63;98439.47;6888529;28;20200;-91
2023/11/07 05:20:18;;;;;;;1.90;1.57;;;;;;;12.55;53.39;98441.25;6889314;28;20231;-93
2023/11/07 05:23:39;;;;;;;1.93;1.83;;;;;;;12.58;53.37;98438.09;6887447;28;20212;-90
2023/11/07 05:27:01;;;;;;;1.90;1.70;;;;;;;12.16;54.51;98457.09;6881654;28;20352;-92
2023/11/07 05:30:22;;;;;;;2.10;2.00;;;;;;;12.08;54.73;98449.25;6865517;28;20258;-92
2023/11/07 05:33:44;;;;;;;2.40;2.20;;;;;;;12.12;54.62;98439.66;6909596;28;20206;-93
2023/11/07 05:37:07;;;;;;;2.57;2.37;;;;;;;12.27;54.77;98461.75;6947610;28;20278;-89
2023/11/07 05:40:29;;;;;;;2.77;2.17;;;;;;;11.43;55.05;98393.09;6948753;28;20237;-93
2023/11/07 05:43:50;;;;;;;4.70;2.60;;;;;;;11.97;54.92;98466.19;6938564;28;20296;-92
2023/11/07 05:47:12;;;;;;;3.03;2.27;;;;;;;11.86;55.20;98477.75;6937998;28;20244;-92
2023/11/07 05:50:34;;;;;;;2.50;2.30;;;;;;;11.64;55.27;98434.06;6949102;28;20230;-92
2023/11/07 05:53:57;;;;;;;2.63;2.30;;;;;;;11.36;56.78;98463.34;6950856;28;20215;-91
2023/11/07 05:57:27;;;;;;;2.20;2.00;;;;;;;10.85;57.66;98448.28;6970475;28;20219;-90
2023/11/07 06:09:04;;;;;;;3.10;2.07;;;;;;;11.85;55.76;98459.88;6955302;28;20230;-90
2023/11/07 06:16:05;;;;;;;2.90;2.60;;;;;;;12.01;54.79;98462.84;6911340;28;20250;-91
2023/11/07 06:19:27;;;;;;;3.33;2.17;;;;;;;11.21;54.28;98336.00;6909318;28;20229;-92
2023/11/07 06:22:50;;;;;;;2.40;2.20;;;;;;;11.92;54.58;98488.47;6908188;28;20204;-92
2023/11/07 06:26:51;;;;;;;2.57;2.37;;;;;;;11.87;54.68;98495.59;6899383;28;20208;-91
2023/11/07 06:47:16;;;;;;;2.97;2.33;;;;;;;10.47;56.15;98396.22;6710566;29;20212;-93
2023/11/07 07:33:31;;;;;;;3.70;2.20;;;;;;;12.97;53.59;98507.97;6920008;28;20216;-88
2023/11/07 07:36:54;;;;;;;3.03;2.27;;;;;;;13.05;53.04;98515.78;6917913;28;20227;-88
2023/11/07 07:40:15;;;;;;;2.37;2.17;;;;;;;13.36;52.16;98512.88;6898191;28;20227;-89
2023/11/07 07:43:38;;;;;;;3.00;2.20;;;;;;;13.36;52.73;98517.44;6903207;28;20265;-88
2023/11/07 07:47:00;;;;;;;2.57;2.20;;;;;;;13.63;52.07;98505.19;6902326;28;20886;-88
2023/11/07 07:50:23;;;;;;;3.47;2.40;;;;;;;13.53;52.86;98505.75;6897844;28;20281;-87
2023/11/07 07:53:45;;;;;;;2.20;2.10;;;;;;;13.94;51.89;98511.16;6899924;28;20200;-85
2023/11/07 07:57:08;;;;;;;3.50;2.60;;;;;;;14.11;51.26;98489.59;6903153;28;20264;-88
2023/11/07 08:00:31;;;;;;;2.33;1.93;;;;;;;14.53;49.59;98505.53;6901822;28;20279;-88
2023/11/07 08:03:54;;;;;;;1.63;1.53;;;;;;;14.78;48.20;98506.09;6895892;28;20201;-89
2023/11/07 08:07:17;;;;;;;1.97;1.60;;;;;;;15.07;47.73;98512.38;6901667;28;20725;-88
2023/11/07 08:10:39;;;;;;;1.90;1.77;;;;;;;15.19;47.97;98516.72;6898364;28;20244;-88
2023/11/07 08:14:01;;;;;;;1.73;1.47;;;;;;;16.95;43.62;98506.91;6903679;28;20697;-88
2023/11/07 08:17:23;;;;;;;3.17;1.80;;;;;;;16.92;42.25;98436.63;6890935;28;20276;-88
2023/11/07 08:20:45;;;;;;;2.83;1.60;;;;;;;16.26;43.31;98428.63;6892430;28;20229;-88
2023/11/07 08:24:09;;;;;;;2.00;1.57;;;;;;;16.33;42.60;98413.78;6887767;28;20209;-88
2023/11/07 08:27:30;;;;;;;1.70;1.60;;;;;;;16.67;42.33;98392.75;6888858;28;20197;-86
2023/11/07 08:30:52;;;;;;;2.00;1.80;;;;;;;16.71;42.75;98495.47;6889319;28;20676;-88
2023/11/07 08:34:13;;;;;;;2.00;1.67;;;;;;;16.92;42.08;98494.63;6888249;28;20288;-88
2023/11/07 08:37:35;;;;;;;2.27;1.50;;;;;;;17.32;41.12;98491.56;6888187;28;20213;-88
2023/11/07 08:40:59;;;;;;;2.67;1.53;;;;;;;16.90;41.65;98452.38;6887943;28;20675;-86
2023/11/07 08:44:21;;;;;;;1.67;1.50;;;;;;;16.37;43.31;98514.78;6892201;28;20220;-88
2023/11/07 08:47:44;;;;;;;2.20;1.40;;;;;;;15.98;44.16;98523.94;6888605;28;20199;-88
2023/11/07 08:51:06;;;;;;;1.77;1.67;;;;;;;16.11;44.62;98469.22;6898783;28;20208;-86
2023/11/07 08:54:27;;;;;;;2.03;1.80;;;;;;;16.73;43.80;98527.84;6893528;28;20317;-84
2023/11/07 08:57:50;;;;;;;1.73;1.50;;;;;;;16.50;43.74;98519.88;6887986;28;20289;-88
2023/11/07 09:01:13;;;;;;;3.77;1.93;;;;;;;16.13;43.46;98473.34;6889269;28;20296;-89
2023/11/07 09:04:34;;;;;;;2.73;1.93;;;;;;;16.05;44.64;98527.31;6888228;28;20205;-89
2023/11/07 09:07:56;;;;;;;1.70;1.60;;;;;;;15.68;44.50;98428.28;6888390;28;20261;-89
2023/11/07 09:11:19;;;;;;;2.63;2.43;;;;;;;16.37;45.04;98528.38;6883849;28;20260;-89
2023/11/07 09:14:42;;;;;;;1.80;1.70;;;;;;;16.12;44.11;98534.25;6882398;28;20239;-89
2023/11/07 09:18:04;;;;;;;3.03;1.77;;;;;;;16.05;45.40;98533.56;6891357;28;20301;-89
2023/11/07 09:21:26;;;;;;;2.20;1.93;;;;;;;15.90;44.75;98497.97;6913661;28;20298;-89
2023/11/07 09:24:48;;;;;;;2.50;1.60;;;;;;;16.20;44.67;98539.28;6905675;28;20211;-89
2023/11/07 09:28:10;;;;;;;3.10;1.70;;;;;;;16.06;44.84;98499.03;6915242;28;20233;-89
2023/11/07 09:31:33;;;;;;;2.77;1.60;;;;;;;15.97;44.14;98495.91;6891095;28;20215;-89
2023/11/07 09:34:57;;;;;;;3.03;1.70;;;;;;;15.76;44.93;98520.28;6887164;28;20217;-89
2023/11/07 09:38:18;;;;;;;2.23;1.80;;;;;;;16.12;44.69;98492.63;6877548;28;20233;-89
2023/11/07 09:41:42;;;;;;;2.00;1.90;;;;;;;16.03;45.78;98529.44;6890538;28;20221;-88
2023/11/07 09:45:09;;;;;;;1.80;1.70;;;;;;;16.08;44.32;98486.84;6887758;28;20212;-89
2023/11/07 09:48:32;;;;;;;2.30;1.80;;;;;;;16.43;43.72;98503.75;6913215;28;20705;-89
2023/11/07 09:51:55;;;;;;;2.17;1.60;;;;;;;16.92;43.25;98535.47;6885497;28;20725;-89
2023/11/07 09:55:17;;;;;;;5.70;2.20;;;;;;;16.54;44.34;98535.50;6890105;28;20228;-88
2023/11/07 09:58:43;;;;;;;3.60;1.73;;;;;;;17.20;43.86;98537.19;6888783;28;20275;-88
2023/11/07 10:02:06;;;;;;;4.33;1.70;;;;;;;17.26;43.04;98514.38;6899228;28;20883;-89
2023/11/07 10:05:31;;;;;;;2.67;1.57;;;;;;;17.50;41.72;98532.97;6895124;28;20223;-89
2023/11/07 10:08:55;;;;;;;1.50;1.40;;;;;;;16.60;42.45;98458.28;6877466;28;20228;-89
2023/11/07 10:12:18;;;;;;;1.33;1.23;;;;;;;17.05;42.86;98526.13;6898041;28;20201;-89
2023/11/07 10:15:39;;;;;;;1.70;1.37;;;;;;;17.16;43.15;98534.16;6891509;28;20229;-89
2023/11/07 10:19:02;;;;;;;1.93;1.40;;;;;;;17.24;42.80;98527.44;6892831;28;20251;-88
2023/11/07 10:22:24;;;;;;;1.50;1.40;;;;;;;16.69;42.86;98516.66;6899321;28;20577;-87
2023/11/07 10:25:49;;;;;;;2.30;1.43;;;;;;;17.26;42.19;98519.84;6883068;28;20717;-87
2023/11/07 10:29:14;;;;;;;1.20;1.20;;;;;;;16.21;42.27;98404.09;6886615;28;20235;-83
2023/11/07 10:32:45;;;;;;;1.73;1.23;;;;;;;17.54;42.29;98514.19;6881715;28;20222;-86
2023/11/07 10:36:07;;;;;;;1.57;1.37;;;;;;;17.69;42.88;98509.72;6877054;28;20596;-87
2023/11/07 10:39:30;;;;;;;1.10;1.10;;;;;;;16.64;44.02;98513.84;6910355;28;20394;-84
2023/11/07 10:42:51;;;;;;;4.33;2.30;;;;;;;16.87;43.69;98502.72;6893260;28;20214;-86
2023/11/07 10:46:13;;;;;;;1.67;1.57;;;;;;;16.98;42.94;98493.63;6890161;28;20205;-81
2023/11/07 10:49:36;;;;;;;1.90;1.60;;;;;;;17.57;42.85;98497.34;6897742;28;20979;-86
2023/11/07 10:52:58;;;;;;;2.03;1.83;;;;;;;17.15;43.09;98497.09;6909328;28;20204;-85
2023/11/07 10:56:21;;;;;;;3.50;2.10;;;;;;;17.14;43.49;98481.00;6901366;28;20364;-85
2023/11/07 10:59:47;;;;;;;1.50;1.40;;;;;;;16.66;43.80;98473.59;6911253;28;20705;-87
2023/11/07 11:03:10;;;;;;;2.57;1.93;;;;;;;17.11;43.46;98471.44;6902870;28;20340;-85
2023/11/07 11:06:32;;;;;;;1.30;1.23;;;;;;;16.47;43.92;98466.81;6887340;28;20380;-87
2023/11/07 11:09:55;;;;;;;4.03;2.80;;;;;;;16.79;44.64;98483.28;6902777;28;20317;-86
2023/11/07 11:13:19;;;;;;;1.53;1.30;;;;;;;16.96;43.58;98497.66;6915657;28;20688;-88
2023/11/07 11:16:43;;;;;;;2.10;1.60;;;;;;;16.52;44.25;98506.88;6908895;28;20236;-87
2023/11/07 11:20:13;;;;;;;1.17;1.17;;;;;;;16.03;44.67;98442.41;6890787;28;20230;-85
2023/11/07 11:23:40;;;;;;;1.10;1.10;;;;;;;15.91;46.18;98504.22;6902062;28;20298;-85
2023/11/07 11:27:11;;;;;;;1.20;1.10;;;;;;;16.05;45.98;98498.22;6881286;28;20209;-87
2023/11/07 11:30:36;;;;;;;2.10;1.43;;;;;;;15.77;46.82;98527.34;6877663;28;20276;-90
2023/11/07 11:34:31;;;;;;;2.07;1.10;;;;;;;15.30;49.79;98537.59;6899550;28;20299;-87
2023/11/07 11:38:13;;;;;;;2.53;1.20;;;;;;;15.24;49.54;98535.00;6848007;29;20297;-89
2023/11/07 11:41:56;;;;;;;1.37;1.23;;;;;;;15.31;49.79;98531.09;6844589;28;20225;-89
2023/11/07 11:45:28;;;;;;;1.17;1.07;;;;;;;14.93;51.28;98511.00;6889050;28;20668;-87
2023/11/07 11:49:08;;;;;;;1.57;1.47;;;;;;;15.11;52.30;98527.94;6875439;28;20320;-85
2023/11/07 11:52:34;;;;;;;2.50;2.30;;;;;;;15.49;51.82;98530.09;6896857;28;20238;-91
2023/11/07 11:56:11;;;;;;;2.33;2.00;;;;;;;15.56;51.52;98518.00;6911407;28;20214;-88
2023/11/07 11:59:54;;;;;;;1.40;1.30;;;;;;;14.93;52.17;98528.09;6887899;28;20283;-88
2023/11/07 12:03:18;;;;;;;1.60;1.50;;;;;;;15.24;51.92;98519.53;6882659;28;20258;-88
2023/11/07 12:07:14;;;;;;;1.50;1.40;;;;;;;14.53;52.89;98523.69;6887020;28;20209;-86
2023/11/07 12:10:37;;;;;;;1.97;1.30;;;;;;;14.85;52.90;98533.91;6887770;28;20295;-88
2023/11/07 12:14:01;;;;;;;1.60;1.50;;;;;;;15.03;51.55;98513.91;6887069;28;20349;-87
2023/11/07 12:17:23;;;;;;;1.10;1.10;;;;;;;15.35;51.01;98505.13;6888537;28;20714;-87
2023/11/07 12:20:45;;;;;;;1.30;1.30;;;;;;;15.42;51.70;98504.97;6888626;28;20276;-86
2023/11/07 12:24:09;;;;;;;1.73;1.30;;;;;;;15.67;50.69;98503.53;6886098;28;20597;-85
2023/11/07 12:27:31;;;;;;;1.30;1.20;;;;;;;15.72;51.54;98505.53;6888915;28;20402;-84
2023/11/07 12:30:56;;;;;;;1.57;1.47;;;;;;;16.09;50.94;98499.38;6888034;28;20274;-85
2023/11/07 12:34:30;;;;;;;1.40;1.30;;;;;;;15.75;50.79;98499.59;6886248;28;20211;-87
2023/11/07 12:37:51;;;;;;;1.90;1.50;;;;;;;16.42;50.03;98476.78;6887675;28;20325;-88
2023/11/07 12:41:13;;;;;;;1.60;1.40;;;;;;;15.32;51.52;98436.81;6888026;28;20260;-85
2023/11/07 12:44:41;;;;;;;2.43;1.77;;;;;;;16.26;51.97;98502.91;6886413;28;20211;-88
2023/11/07 12:48:04;;;;;;;2.93;2.10;;;;;;;16.17;51.18;98498.13;6880493;28;20231;-89
2023/11/07 12:51:25;;;;;;;4.67;1.60;;;;;;;16.38;50.24;98457.41;6886627;28;20208;-87
2023/11/07 12:54:47;;;;;;;3.17;1.77;;;;;;;16.56;50.14;98488.94;6887094;28;20293;-90
2023/11/07 12:58:09;;;;;;;3.07;1.60;;;;;;;17.26;48.70;98482.53;6888792;28;20364;-88
2023/11/07 13:01:32;;;;;;;1.30;1.20;;;;;;;16.42;48.35;98485.78;6888310;28;20225;-87
2023/11/07 13:04:54;;;;;;;1.33;1.23;;;;;;;16.13;47.26;98494.25;6878810;28;20247;-89
2023/11/07 13:08:26;;;;;;;3.87;1.40;;;;;;;16.74;45.44;98484.03;6883340;28;20309;-86
2023/11/07 13:11:47;;;;;;;1.00;1.00;;;;;;;16.05;46.80;98464.78;6887731;28;20293;-87
2023/11/07 13:15:10;;;;;;;1.53;1.10;;;;;;;16.05;46.50;98478.38;6884961;28;20248;-89
2023/11/07 13:18:33;;;;;;;0.90;0.90;;;;;;;16.19;47.07;98496.81;6878806;28;20233;-90
2023/11/07 13:21:55;;;;;;;1.23;0.90;;;;;;;15.73;46.61;98482.69;6887964;28;20715;-90
2023/11/07 13:25:16;;;;;;;2.80;1.40;;;;;;;15.97;47.03;98489.63;6884031;28;20680;-89
2023/11/07 13:28:40;;;;;;;1.13;1.10;;;;;;;16.09;45.87;98490.38;6887351;28;20265;-90
2023/11/07 13:32:03;;;;;;;1.37;1.27;;;;;;;15.57;47.46;98488.97;6886069;28;20275;-88
2023/11/07 13:35:26;;;;;;;1.47;1.43;;;;;;;15.59;46.70;98471.34;6885521;28;20258;-89
2023/11/07 13:38:48;;;;;;;1.77;1.67;;;;;;;15.42;46.69;98429.72;6888113;28;20758;-91
2023/11/07 13:42:09;;;;;;;1.30;1.30;;;;;;;16.17;46.25;98495.41;6887805;28;20295;-91
2023/11/07 13:45:31;;;;;;;5.47;1.50;;;;;;;16.20;46.27;98465.81;6880339;28;20222;-90
2023/11/07 13:48:53;;;;;;;4.10;3.40;;;;;;;15.21;46.49;98411.38;6887868;28;20285;-89
2023/11/07 13:52:17;;;;;;;1.80;1.70;;;;;;;15.66;46.55;98477.44;6886171;28;20293;-90
2023/11/07 13:55:39;;;;;;;4.40;2.03;;;;;;;15.62;46.40;98408.34;6888046;28;20206;-89
2023/11/07 13:59:00;;;;;;;1.50;1.40;;;;;;;15.97;46.44;98463.28;6885125;28;20264;-90
2023/11/07 14:02:22;;;;;;;1.47;1.47;;;;;;;15.64;46.09;98471.41;6882411;28;20207;-91
2023/11/07 14:05:43;;;;;;;4.37;4.07;;;;;;;15.44;47.09;98491.94;6888230;28;20685;-85
2023/11/07 14:09:08;;;;;;;1.30;1.20;;;;;;;15.53;46.98;98498.66;6884508;28;20734;-89
2023/11/07 14:12:30;;;;;;;2.40;2.20;;;;;;;15.26;47.55;98484.81;6883487;28;20210;-89
2023/11/07 14:15:52;;;;;;;1.13;1.13;;;;;;;15.46;47.54;98506.13;6896251;28;20290;-86
2023/11/07 14:19:13;;;;;;;1.50;1.33;;;;;;;15.52;47.20;98492.38;6901786;28;20229;-86
2023/11/07 14:22:35;;;;;;;1.73;1.63;;;;;;;15.55;47.27;98502.78;6899209;28;20219;-89
2023/11/07 14:25:58;;;;;;;1.33;1.33;;;;;;;15.34;46.84;98472.78;6902568;28;20222;-89
2023/11/07 14:29:20;;;;;;;2.27;1.20;;;;;;;15.75;47.11;98515.91;6887674;28;20220;-88
2023/11/07 14:32:42;;;;;;;1.80;1.33;;;;;;;15.84;46.41;98503.56;6902519;28;20677;-89
2023/11/07 14:36:07;;;;;;;1.40;1.40;;;;;;;15.95;46.31;98508.09;6893581;28;20320;-89
2023/11/07 14:39:29;;;;;;;1.70;1.60;;;;;;;16.01;46.01;98521.56;6897240;28;20236;-88
2023/11/07 14:42:54;;;;;;;1.20;1.20;;;;;;;15.07;47.62;98524.09;6889456;28;20215;-88
2023/11/07 14:46:17;;;;;;;1.30;1.20;;;;;;;15.09;47.18;98531.97;6888913;28;20202;-88
2023/11/07 14:49:39;;;;;;;1.30;1.20;;;;;;;15.07;46.85;98485.22;6881669;28;20699;-88
2023/11/07 14:53:01;;;;;;;1.30;1.20;;;;;;;15.04;47.46;98524.53;6879692;28;20205;-89
2023/11/07 14:56:24;;;;;;;1.13;1.13;;;;;;;14.37;48.17;98452.00;6889312;28;20231;-89
2023/11/07 14:59:47;;;;;;;1.10;1.10;;;;;;;15.50;46.80;98513.56;6894809;28;20224;-89
2023/11/07 15:03:09;;;;;;;1.20;1.20;;;;;;;15.51;47.41;98542.38;6888063;28;20229;-89
2023/11/07 15:06:31;;;;;;;1.83;1.43;;;;;;;15.44;47.50;98540.84;6885504;28;20675;-88
2023/11/07 15:09:52;;;;;;;1.50;1.40;;;;;;;15.15;47.42;98544.59;6870256;28;20229;-89
2023/11/07 15:13:14;;;;;;;1.70;1.50;;;;;;;15.39;47.17;98554.38;6885087;28;20287;-89
2023/11/07 15:16:37;;;;;;;1.93;1.60;;;;;;;15.40;47.67;98542.44;6892328;28;20267;-88
2023/11/07 15:19:59;;;;;;;1.30;1.20;;;;;;;15.70;45.97;98523.97;6890313;28;20226;-89
2023/11/07 15:23:21;;;;;;;1.20;1.20;;;;;;;15.43;46.24;98517.47;6889785;28;20837;-88
2023/11/07 15:26:42;;;;;;;1.40;1.30;;;;;;;15.27;47.26;98551.63;6892890;28;20278;-88
2023/11/07 15:30:06;;;;;;;1.93;1.83;;;;;;;14.83;47.08;98497.22;6881280;28;20359;-88
2023/11/07 15:33:29;;;;;;;1.30;1.30;;;;;;;15.01;47.50;98556.78;6889285;28;20584;-87
2023/11/07 15:36:51;;;;;;;2.40;2.20;;;;;;;15.29;47.04;98524.25;6885937;28;20232;-88
2023/11/07 15:40:27;;;;;;;1.30;1.30;;;;;;;14.88;47.36;98547.03;6889034;28;20364;-88
2023/11/07 15:43:51;;;;;;;1.40;1.40;;;;;;;14.89;47.53;98555.97;6806058;29;20207;-88
2023/11/07 15:47:13;;;;;;;1.97;1.53;;;;;;;15.07;47.56;98558.53;6806949;29;20207;-89
2023/11/07 15:50:36;;;;;;;2.27;2.07;;;;;;;15.13;47.35;98563.00;6806689;29;20232;-88
2023/11/07 15:53:57;;;;;;;1.50;1.40;;;;;;;15.13;46.82;98544.00;6804780;29;20206;-89
2023/11/07 15:57:20;;;;;;;1.40;1.30;;;;;;;15.16;47.51;98574.22;6805798;29;20277;-88
2023/11/07 16:00:42;;;;;;;1.93;1.67;;;;;;;14.83;48.26;98551.50;6806445;29;20246;-88
2023/11/07 16:04:05;;;;;;;2.33;1.50;;;;;;;15.43;46.98;98569.94;6805574;29;20216;-88
2023/11/07 16:07:27;;;;;;;3.57;2.53;;;;;;;15.00;47.88;98587.72;6806750;29;20637;-87
2023/11/07 16:10:49;;;;;;;2.03;1.83;;;;;;;15.16;46.97;98587.81;6804571;29;20815;-88
2023/11/07 16:14:12;;;;;;;2.17;1.90;;;;;;;14.71;48.26;98599.53;6801971;29;20595;-88
2023/11/07 16:17:33;;;;;;;2.00;1.87;;;;;;;14.78;47.98;98582.09;6804538;29;20231;-88
2023/11/07 16:20:55;;;;;;;1.67;1.57;;;;;;;14.73;48.37;98590.09;6850041;28;20332;-87
2023/11/07 16:24:18;;;;;;;1.60;1.50;;;;;;;14.89;48.08;98610.28;6887894;28;20671;-88
2023/11/07 16:27:40;;;;;;;1.87;1.67;;;;;;;14.71;48.94;98605.81;6888884;28;20354;-88
2023/11/07 16:31:04;;;;;;;1.63;1.53;;;;;;;14.67;48.75;98606.50;6878651;28;20300;-88
2023/11/07 16:34:25;;;;;;;3.90;3.00;;;;;;;14.05;48.37;98504.09;6884323;28;20687;-88
2023/11/07 16:37:48;;;;;;;8.73;4.83;;;;;;;14.66;48.55;98626.56;6877749;28;20293;-87
2023/11/07 16:41:11;;;;;;;16.30;8.13;;;;;;;14.84;48.21;98627.28;6888099;28;20241;-88
2023/11/07 16:44:39;;;;;;;3.97;3.07;;;;;;;14.94;48.40;98630.22;6888259;28;20213;-89
2023/11/07 16:48:00;;;;;;;2.80;2.30;;;;;;;14.84;48.05;98635.41;6888221;28;20224;-88
2023/11/07 16:51:22;;;;;;;4.00;3.60;;;;;;;14.75;48.51;98630.59;6888138;28;20242;-89
2023/11/07 16:54:43;;;;;;;3.43;3.13;;;;;;;14.75;48.22;98642.25;6885977;28;20307;-84
2023/11/07 16:58:07;;;;;;;7.23;5.53;;;;;;;14.79;48.22;98646.16;6889217;28;20372;-87
2023/11/07 17:01:28;;;;;;;3.93;2.83;;;;;;;14.07;48.34;98542.63;6891796;28;20625;-87
2023/11/07 17:04:50;;;;;;;13.23;8.43;;;;;;;15.13;47.59;98653.47;6888304;28;20295;-86
2023/11/07 17:08:12;;;;;;;80.23;29.30;;;;;;;15.01;47.91;98652.66;6893134;28;20380;-87
2023/11/07 17:11:34;;;;;;;4.20;3.63;;;;;;;15.07;47.58;98664.44;6897330;28;20206;-85
2023/11/07 17:14:56;;;;;;;2.30;2.20;;;;;;;14.95;47.44;98661.75;6903378;28;20227;-85
2023/11/07 17:18:18;;;;;;;2.37;2.13;;;;;;;15.08;46.73;98664.22;6896302;28;20657;-86
2023/11/07 17:21:42;;;;;;;31.73;21.93;;;;;;;14.97;46.54;98637.03;6894436;28;20232;-88